sensor_id;sensor_type;location;lat;lon;timestamp;P1;durP1;ratioP1;P2;durP2;ratioP2
56667;SDS011;42542;48.360;10.958;2022-12-24T00:00:49;4.13;;;0.80;;
56667;SDS011;42542;48.360;10.958;2022-12-24T00:03:56;3.88;;;0.90;;
56667;SDS011;42542;48.360;10.958;2022-12-24T00:06:57;4.83;;;0.90;;
56667;SDS011;42542;48.360;10.958;2022-12-24T00:09:59;4.97;;;0.93;;
56667;SDS011;42542;48.360;10.958;2022-12-24T00:13:00;3.85;;;1.00;;
56667;SDS011;42542;48.360;10.958;2022-12-24T00:16:02;3.73;;;0.90;;
56667;SDS011;42542;48.360;10.958;2022-12-24T00:19:04;5.57;;;0.90;;
56667;SDS011;42542;48.360;10.958;2022-12-24T00:22:05;6.20;;;1.10;;
56667;SDS011;42542;48.360;10.958;2022-12-24T00:25:07;5.32;;;1.00;;
56667;SDS011;42542;48.360;10.958;2022-12-24T00:28:10;4.50;;;1.00;;
56667;SDS011;42542;48.360;10.958;2022-12-24T00:31:13;4.13;;;1.05;;
56667;SDS011;42542;48.360;10.958;2022-12-24T00:34:16;3.47;;;0.95;;
56667;SDS011;42542;48.360;10.958;2022-12-24T00:37:18;3.47;;;0.97;;
56667;SDS011;42542;48.360;10.958;2022-12-24T00:40:19;3.92;;;1.05;;
56667;SDS011;42542;48.360;10.958;2022-12-24T00:43:21;5.72;;;1.10;;
56667;SDS011;42542;48.360;10.958;2022-12-24T00:46:23;4.57;;;1.10;;
56667;SDS011;42542;48.360;10.958;2022-12-24T00:49:26;4.47;;;1.00;;
56667;SDS011;42542;48.360;10.958;2022-12-24T00:52:27;6.20;;;1.30;;
56667;SDS011;42542;48.360;10.958;2022-12-24T00:55:29;3.88;;;1.10;;
56667;SDS011;42542;48.360;10.958;2022-12-24T00:58:31;3.72;;;0.90;;
56667;SDS011;42542;48.360;10.958;2022-12-24T01:01:32;3.80;;;1.05;;
56667;SDS011;42542;48.360;10.958;2022-12-24T01:04:36;6.47;;;1.10;;
56667;SDS011;42542;48.360;10.958;2022-12-24T01:07:56;5.27;;;1.10;;
56667;SDS011;42542;48.360;10.958;2022-12-24T01:10:58;4.65;;;1.10;;
56667;SDS011;42542;48.360;10.958;2022-12-24T01:14:01;3.92;;;1.00;;
56667;SDS011;42542;48.360;10.958;2022-12-24T01:17:03;4.00;;;1.10;;
56667;SDS011;42542;48.360;10.958;2022-12-24T01:20:06;4.13;;;1.02;;
56667;SDS011;42542;48.360;10.958;2022-12-24T01:23:11;5.65;;;1.00;;
56667;SDS011;42542;48.360;10.958;2022-12-24T01:26:13;4.60;;;1.10;;
56667;SDS011;42542;48.360;10.958;2022-12-24T01:29:14;4.88;;;1.10;;
56667;SDS011;42542;48.360;10.958;2022-12-24T01:32:16;5.30;;;1.10;;
56667;SDS011;42542;48.360;10.958;2022-12-24T01:35:18;4.20;;;1.05;;
56667;SDS011;42542;48.360;10.958;2022-12-24T01:38:19;5.80;;;1.20;;
56667;SDS011;42542;48.360;10.958;2022-12-24T01:41:21;4.53;;;1.05;;
56667;SDS011;42542;48.360;10.958;2022-12-24T01:44:43;3.75;;;1.00;;
56667;SDS011;42542;48.360;10.958;2022-12-24T01:47:48;4.43;;;1.07;;
56667;SDS011;42542;48.360;10.958;2022-12-24T01:50:50;3.70;;;1.00;;
56667;SDS011;42542;48.360;10.958;2022-12-24T01:54:01;3.75;;;1.00;;
56667;SDS011;42542;48.360;10.958;2022-12-24T01:57:08;5.35;;;1.10;;
56667;SDS011;42542;48.360;10.958;2022-12-24T02:00:14;4.65;;;1.00;;
56667;SDS011;42542;48.360;10.958;2022-12-24T02:03:17;5.05;;;1.08;;
56667;SDS011;42542;48.360;10.958;2022-12-24T02:06:20;4.57;;;1.00;;
56667;SDS011;42542;48.360;10.958;2022-12-24T02:09:22;4.80;;;1.10;;
56667;SDS011;42542;48.360;10.958;2022-12-24T02:12:24;5.63;;;1.13;;
56667;SDS011;42542;48.360;10.958;2022-12-24T02:15:38;3.50;;;0.93;;
56667;SDS011;42542;48.360;10.958;2022-12-24T02:22:06;8.32;;;1.10;;
56667;SDS011;42542;48.360;10.958;2022-12-24T02:32:14;4.60;;;1.10;;
56667;SDS011;42542;48.360;10.958;2022-12-24T02:38:49;7.90;;;1.10;;
56667;SDS011;42542;48.360;10.958;2022-12-24T02:41:56;5.37;;;1.20;;
56667;SDS011;42542;48.360;10.958;2022-12-24T02:45:09;3.95;;;1.08;;
56667;SDS011;42542;48.360;10.958;2022-12-24T02:48:15;3.75;;;0.95;;
56667;SDS011;42542;48.360;10.958;2022-12-24T02:51:21;4.33;;;1.10;;
56667;SDS011;42542;48.360;10.958;2022-12-24T02:54:25;3.70;;;0.95;;
56667;SDS011;42542;48.360;10.958;2022-12-24T02:57:28;5.78;;;0.90;;
56667;SDS011;42542;48.360;10.958;2022-12-24T03:00:55;5.03;;;1.00;;
56667;SDS011;42542;48.360;10.958;2022-12-24T03:04:40;4.60;;;1.00;;
56667;SDS011;42542;48.360;10.958;2022-12-24T03:08:04;4.18;;;1.00;;
56667;SDS011;42542;48.360;10.958;2022-12-24T03:11:14;3.55;;;0.88;;
56667;SDS011;42542;48.360;10.958;2022-12-24T03:14:16;4.97;;;0.90;;
56667;SDS011;42542;48.360;10.958;2022-12-24T03:17:19;4.40;;;1.00;;
56667;SDS011;42542;48.360;10.958;2022-12-24T03:20:24;6.35;;;1.52;;
56667;SDS011;42542;48.360;10.958;2022-12-24T03:23:30;4.87;;;1.20;;
56667;SDS011;42542;48.360;10.958;2022-12-24T03:26:33;6.03;;;1.00;;
56667;SDS011;42542;48.360;10.958;2022-12-24T03:29:35;8.02;;;1.05;;
56667;SDS011;42542;48.360;10.958;2022-12-24T03:32:39;5.35;;;1.05;;
56667;SDS011;42542;48.360;10.958;2022-12-24T03:35:41;6.10;;;1.17;;
56667;SDS011;42542;48.360;10.958;2022-12-24T03:38:43;4.28;;;1.13;;
56667;SDS011;42542;48.360;10.958;2022-12-24T03:41:44;4.10;;;1.00;;
56667;SDS011;42542;48.360;10.958;2022-12-24T03:44:46;5.70;;;1.00;;
56667;SDS011;42542;48.360;10.958;2022-12-24T03:47:48;6.15;;;0.95;;
56667;SDS011;42542;48.360;10.958;2022-12-24T03:50:49;4.93;;;1.15;;
56667;SDS011;42542;48.360;10.958;2022-12-24T03:53:51;3.90;;;0.90;;
56667;SDS011;42542;48.360;10.958;2022-12-24T03:56:54;3.80;;;1.00;;
56667;SDS011;42542;48.360;10.958;2022-12-24T03:59:55;5.57;;;1.08;;
56667;SDS011;42542;48.360;10.958;2022-12-24T04:02:57;4.15;;;1.17;;
56667;SDS011;42542;48.360;10.958;2022-12-24T04:06:00;6.95;;;1.10;;
56667;SDS011;42542;48.360;10.958;2022-12-24T04:09:03;6.07;;;1.10;;
56667;SDS011;42542;48.360;10.958;2022-12-24T04:12:06;5.10;;;1.00;;
56667;SDS011;42542;48.360;10.958;2022-12-24T04:15:07;3.80;;;1.00;;
56667;SDS011;42542;48.360;10.958;2022-12-24T04:18:10;4.53;;;1.10;;
56667;SDS011;42542;48.360;10.958;2022-12-24T04:21:11;5.57;;;1.00;;
56667;SDS011;42542;48.360;10.958;2022-12-24T04:24:13;4.23;;;1.00;;
56667;SDS011;42542;48.360;10.958;2022-12-24T04:27:15;6.05;;;1.13;;
56667;SDS011;42542;48.360;10.958;2022-12-24T04:30:17;7.47;;;1.20;;
56667;SDS011;42542;48.360;10.958;2022-12-24T04:33:18;5.07;;;1.10;;
56667;SDS011;42542;48.360;10.958;2022-12-24T04:36:20;5.18;;;1.33;;
56667;SDS011;42542;48.360;10.958;2022-12-24T04:39:22;5.90;;;1.20;;
56667;SDS011;42542;48.360;10.958;2022-12-24T04:42:23;4.47;;;1.02;;
56667;SDS011;42542;48.360;10.958;2022-12-24T04:45:25;5.23;;;1.20;;
56667;SDS011;42542;48.360;10.958;2022-12-24T04:48:27;4.90;;;1.17;;
56667;SDS011;42542;48.360;10.958;2022-12-24T04:51:28;7.97;;;1.40;;
56667;SDS011;42542;48.360;10.958;2022-12-24T04:54:30;5.83;;;1.13;;
56667;SDS011;42542;48.360;10.958;2022-12-24T04:57:32;4.40;;;1.08;;
56667;SDS011;42542;48.360;10.958;2022-12-24T05:00:35;5.45;;;1.20;;
56667;SDS011;42542;48.360;10.958;2022-12-24T05:03:37;5.75;;;1.20;;
56667;SDS011;42542;48.360;10.958;2022-12-24T05:06:39;7.28;;;1.20;;
56667;SDS011;42542;48.360;10.958;2022-12-24T05:09:40;5.75;;;1.25;;
56667;SDS011;42542;48.360;10.958;2022-12-24T05:12:42;4.75;;;1.00;;
56667;SDS011;42542;48.360;10.958;2022-12-24T05:15:44;4.50;;;1.20;;
56667;SDS011;42542;48.360;10.958;2022-12-24T05:18:45;6.35;;;1.10;;
56667;SDS011;42542;48.360;10.958;2022-12-24T05:21:47;4.90;;;1.08;;
56667;SDS011;42542;48.360;10.958;2022-12-24T05:25:08;4.93;;;1.20;;
56667;SDS011;42542;48.360;10.958;2022-12-24T05:28:28;4.70;;;1.20;;
56667;SDS011;42542;48.360;10.958;2022-12-24T05:31:30;5.38;;;1.30;;
56667;SDS011;42542;48.360;10.958;2022-12-24T05:34:33;6.03;;;1.40;;
56667;SDS011;42542;48.360;10.958;2022-12-24T05:37:35;6.47;;;1.38;;
56667;SDS011;42542;48.360;10.958;2022-12-24T05:40:36;5.85;;;1.40;;
56667;SDS011;42542;48.360;10.958;2022-12-24T05:43:38;6.57;;;1.40;;
56667;SDS011;42542;48.360;10.958;2022-12-24T05:46:40;8.60;;;1.40;;
56667;SDS011;42542;48.360;10.958;2022-12-24T05:49:41;5.60;;;1.30;;
56667;SDS011;42542;48.360;10.958;2022-12-24T05:52:43;5.18;;;1.30;;
56667;SDS011;42542;48.360;10.958;2022-12-24T05:55:45;6.03;;;1.40;;
56667;SDS011;42542;48.360;10.958;2022-12-24T05:58:46;5.93;;;1.42;;
56667;SDS011;42542;48.360;10.958;2022-12-24T06:01:48;8.27;;;1.80;;
56667;SDS011;42542;48.360;10.958;2022-12-24T06:04:50;8.20;;;1.60;;
56667;SDS011;42542;48.360;10.958;2022-12-24T06:07:52;6.40;;;1.73;;
56667;SDS011;42542;48.360;10.958;2022-12-24T06:10:57;10.35;;;1.60;;
56667;SDS011;42542;48.360;10.958;2022-12-24T06:14:00;6.07;;;1.40;;
56667;SDS011;42542;48.360;10.958;2022-12-24T06:17:01;6.90;;;1.37;;
56667;SDS011;42542;48.360;10.958;2022-12-24T06:20:03;4.90;;;1.42;;
56667;SDS011;42542;48.360;10.958;2022-12-24T06:23:05;6.75;;;1.42;;
56667;SDS011;42542;48.360;10.958;2022-12-24T06:26:08;6.70;;;1.50;;
56667;SDS011;42542;48.360;10.958;2022-12-24T06:29:11;7.80;;;1.50;;
56667;SDS011;42542;48.360;10.958;2022-12-24T06:32:13;6.78;;;1.42;;
56667;SDS011;42542;48.360;10.958;2022-12-24T06:35:14;6.55;;;1.40;;
56667;SDS011;42542;48.360;10.958;2022-12-24T06:38:16;6.30;;;1.50;;
56667;SDS011;42542;48.360;10.958;2022-12-24T06:41:18;4.72;;;1.42;;
56667;SDS011;42542;48.360;10.958;2022-12-24T06:44:20;6.40;;;1.65;;
56667;SDS011;42542;48.360;10.958;2022-12-24T06:47:22;7.73;;;1.40;;
56667;SDS011;42542;48.360;10.958;2022-12-24T06:50:24;7.00;;;1.50;;
56667;SDS011;42542;48.360;10.958;2022-12-24T06:53:25;6.63;;;1.33;;
56667;SDS011;42542;48.360;10.958;2022-12-24T06:56:27;6.23;;;1.33;;
56667;SDS011;42542;48.360;10.958;2022-12-24T06:59:28;5.03;;;1.20;;
56667;SDS011;42542;48.360;10.958;2022-12-24T07:02:30;5.95;;;1.30;;
56667;SDS011;42542;48.360;10.958;2022-12-24T07:05:32;7.97;;;1.25;;
56667;SDS011;42542;48.360;10.958;2022-12-24T07:08:33;11.40;;;1.42;;
56667;SDS011;42542;48.360;10.958;2022-12-24T07:11:36;5.47;;;1.20;;
56667;SDS011;42542;48.360;10.958;2022-12-24T07:14:38;6.13;;;1.25;;
56667;SDS011;42542;48.360;10.958;2022-12-24T07:17:39;4.23;;;1.30;;
56667;SDS011;42542;48.360;10.958;2022-12-24T07:20:41;7.82;;;1.70;;
56667;SDS011;42542;48.360;10.958;2022-12-24T07:23:43;4.88;;;1.10;;
56667;SDS011;42542;48.360;10.958;2022-12-24T07:26:44;6.67;;;1.30;;
56667;SDS011;42542;48.360;10.958;2022-12-24T07:29:46;7.22;;;1.50;;
56667;SDS011;42542;48.360;10.958;2022-12-24T07:32:48;7.40;;;1.42;;
56667;SDS011;42542;48.360;10.958;2022-12-24T07:35:56;5.47;;;1.30;;
56667;SDS011;42542;48.360;10.958;2022-12-24T07:38:59;6.85;;;1.65;;
56667;SDS011;42542;48.360;10.958;2022-12-24T07:42:01;5.22;;;1.30;;
56667;SDS011;42542;48.360;10.958;2022-12-24T07:45:02;9.25;;;1.50;;
56667;SDS011;42542;48.360;10.958;2022-12-24T07:51:39;7.40;;;1.35;;
56667;SDS011;42542;48.360;10.958;2022-12-24T07:54:41;6.38;;;1.20;;
56667;SDS011;42542;48.360;10.958;2022-12-24T07:57:42;6.53;;;1.60;;
56667;SDS011;42542;48.360;10.958;2022-12-24T08:00:44;6.25;;;1.20;;
56667;SDS011;42542;48.360;10.958;2022-12-24T08:03:46;7.93;;;1.20;;
56667;SDS011;42542;48.360;10.958;2022-12-24T08:06:47;6.00;;;1.35;;
56667;SDS011;42542;48.360;10.958;2022-12-24T08:09:49;7.53;;;1.40;;
56667;SDS011;42542;48.360;10.958;2022-12-24T08:12:51;5.50;;;1.40;;
56667;SDS011;42542;48.360;10.958;2022-12-24T08:15:52;6.63;;;1.42;;
56667;SDS011;42542;48.360;10.958;2022-12-24T08:18:54;6.23;;;1.80;;
56667;SDS011;42542;48.360;10.958;2022-12-24T08:21:55;6.55;;;1.70;;
56667;SDS011;42542;48.360;10.958;2022-12-24T08:24:57;11.73;;;2.17;;
56667;SDS011;42542;48.360;10.958;2022-12-24T08:27:58;8.47;;;1.93;;
56667;SDS011;42542;48.360;10.958;2022-12-24T08:31:01;6.22;;;1.40;;
56667;SDS011;42542;48.360;10.958;2022-12-24T08:34:04;18.40;;;3.58;;
56667;SDS011;42542;48.360;10.958;2022-12-24T08:37:06;6.47;;;2.00;;
56667;SDS011;42542;48.360;10.958;2022-12-24T08:40:08;11.82;;;2.78;;
56667;SDS011;42542;48.360;10.958;2022-12-24T08:43:10;6.60;;;1.50;;
56667;SDS011;42542;48.360;10.958;2022-12-24T08:46:12;6.35;;;1.40;;
56667;SDS011;42542;48.360;10.958;2022-12-24T08:49:14;5.10;;;1.20;;
56667;SDS011;42542;48.360;10.958;2022-12-24T08:52:16;7.82;;;1.50;;
56667;SDS011;42542;48.360;10.958;2022-12-24T08:55:17;7.28;;;1.83;;
56667;SDS011;42542;48.360;10.958;2022-12-24T08:58:19;8.17;;;1.87;;
56667;SDS011;42542;48.360;10.958;2022-12-24T09:01:21;8.85;;;2.00;;
56667;SDS011;42542;48.360;10.958;2022-12-24T09:04:22;8.25;;;1.83;;
56667;SDS011;42542;48.360;10.958;2022-12-24T09:07:24;7.68;;;1.75;;
56667;SDS011;42542;48.360;10.958;2022-12-24T09:10:26;6.35;;;1.50;;
56667;SDS011;42542;48.360;10.958;2022-12-24T09:13:27;8.57;;;1.30;;
56667;SDS011;42542;48.360;10.958;2022-12-24T09:16:32;5.95;;;1.40;;
56667;SDS011;42542;48.360;10.958;2022-12-24T09:19:34;5.93;;;1.20;;
56667;SDS011;42542;48.360;10.958;2022-12-24T09:22:36;6.30;;;1.10;;
56667;SDS011;42542;48.360;10.958;2022-12-24T09:25:42;5.38;;;1.10;;
56667;SDS011;42542;48.360;10.958;2022-12-24T09:28:44;5.60;;;1.27;;
56667;SDS011;42542;48.360;10.958;2022-12-24T09:31:47;6.47;;;1.15;;
56667;SDS011;42542;48.360;10.958;2022-12-24T09:34:48;7.28;;;1.27;;
56667;SDS011;42542;48.360;10.958;2022-12-24T09:37:50;5.93;;;1.25;;
56667;SDS011;42542;48.360;10.958;2022-12-24T09:41:13;5.93;;;1.20;;
56667;SDS011;42542;48.360;10.958;2022-12-24T09:44:29;6.78;;;1.30;;
56667;SDS011;42542;48.360;10.958;2022-12-24T09:47:41;5.70;;;1.00;;
56667;SDS011;42542;48.360;10.958;2022-12-24T09:57:07;7.22;;;1.55;;
56667;SDS011;42542;48.360;10.958;2022-12-24T10:00:22;5.20;;;1.00;;
56667;SDS011;42542;48.360;10.958;2022-12-24T10:03:28;5.55;;;1.10;;
56667;SDS011;42542;48.360;10.958;2022-12-24T10:13:22;6.35;;;1.40;;
56667;SDS011;42542;48.360;10.958;2022-12-24T10:16:58;6.72;;;1.20;;
56667;SDS011;42542;48.360;10.958;2022-12-24T10:23:48;6.07;;;1.33;;
56667;SDS011;42542;48.360;10.958;2022-12-24T10:27:22;4.95;;;0.93;;
56667;SDS011;42542;48.360;10.958;2022-12-24T10:30:25;6.20;;;1.05;;
56667;SDS011;42542;48.360;10.958;2022-12-24T10:33:31;7.23;;;1.10;;
56667;SDS011;42542;48.360;10.958;2022-12-24T10:36:49;6.18;;;1.00;;
56667;SDS011;42542;48.360;10.958;2022-12-24T10:39:51;5.53;;;1.00;;
56667;SDS011;42542;48.360;10.958;2022-12-24T10:42:53;5.90;;;1.15;;
56667;SDS011;42542;48.360;10.958;2022-12-24T10:45:56;5.93;;;1.20;;
56667;SDS011;42542;48.360;10.958;2022-12-24T10:49:02;5.47;;;1.10;;
56667;SDS011;42542;48.360;10.958;2022-12-24T10:52:09;6.82;;;1.08;;
56667;SDS011;42542;48.360;10.958;2022-12-24T10:58:17;4.72;;;0.90;;
56667;SDS011;42542;48.360;10.958;2022-12-24T11:01:20;5.22;;;0.95;;
56667;SDS011;42542;48.360;10.958;2022-12-24T11:04:48;4.43;;;0.93;;
56667;SDS011;42542;48.360;10.958;2022-12-24T11:08:00;4.80;;;0.80;;
56667;SDS011;42542;48.360;10.958;2022-12-24T11:11:04;4.85;;;0.77;;
56667;SDS011;42542;48.360;10.958;2022-12-24T11:14:10;4.68;;;0.90;;
56667;SDS011;42542;48.360;10.958;2022-12-24T11:17:20;6.18;;;0.90;;
56667;SDS011;42542;48.360;10.958;2022-12-24T11:20:24;5.28;;;0.80;;
56667;SDS011;42542;48.360;10.958;2022-12-24T11:23:28;5.35;;;0.90;;
56667;SDS011;42542;48.360;10.958;2022-12-24T11:26:30;4.23;;;1.00;;
56667;SDS011;42542;48.360;10.958;2022-12-24T11:29:32;3.92;;;1.00;;
56667;SDS011;42542;48.360;10.958;2022-12-24T11:32:34;4.43;;;0.90;;
56667;SDS011;42542;48.360;10.958;2022-12-24T11:35:40;5.30;;;0.90;;
56667;SDS011;42542;48.360;10.958;2022-12-24T11:38:53;4.70;;;0.80;;
56667;SDS011;42542;48.360;10.958;2022-12-24T11:41:57;5.40;;;0.90;;
56667;SDS011;42542;48.360;10.958;2022-12-24T11:44:59;5.45;;;0.90;;
56667;SDS011;42542;48.360;10.958;2022-12-24T11:48:21;6.15;;;0.90;;
56667;SDS011;42542;48.360;10.958;2022-12-24T11:51:26;5.05;;;1.00;;
56667;SDS011;42542;48.360;10.958;2022-12-24T11:54:29;5.20;;;0.82;;
56667;SDS011;42542;48.360;10.958;2022-12-24T11:57:41;6.17;;;1.17;;
56667;SDS011;42542;48.360;10.958;2022-12-24T12:01:22;4.68;;;0.98;;
56667;SDS011;42542;48.360;10.958;2022-12-24T12:04:29;4.60;;;1.05;;
56667;SDS011;42542;48.360;10.958;2022-12-24T12:07:35;6.13;;;0.90;;
56667;SDS011;42542;48.360;10.958;2022-12-24T12:10:38;4.50;;;0.90;;
56667;SDS011;42542;48.360;10.958;2022-12-24T12:13:43;5.05;;;1.02;;
56667;SDS011;42542;48.360;10.958;2022-12-24T12:16:49;4.80;;;1.10;;
56667;SDS011;42542;48.360;10.958;2022-12-24T12:20:03;4.60;;;0.80;;
56667;SDS011;42542;48.360;10.958;2022-12-24T12:26:21;4.22;;;0.90;;
56667;SDS011;42542;48.360;10.958;2022-12-24T12:29:32;5.13;;;0.90;;
56667;SDS011;42542;48.360;10.958;2022-12-24T12:35:50;3.88;;;0.73;;
56667;SDS011;42542;48.360;10.958;2022-12-24T12:38:55;5.30;;;1.00;;
56667;SDS011;42542;48.360;10.958;2022-12-24T12:42:10;4.30;;;0.80;;
56667;SDS011;42542;48.360;10.958;2022-12-24T12:52:06;5.13;;;0.82;;
56667;SDS011;42542;48.360;10.958;2022-12-24T12:58:38;6.25;;;1.02;;
56667;SDS011;42542;48.360;10.958;2022-12-24T13:01:43;4.33;;;0.80;;
56667;SDS011;42542;48.360;10.958;2022-12-24T13:11:11;3.43;;;0.73;;
56667;SDS011;42542;48.360;10.958;2022-12-24T13:21:21;4.25;;;0.80;;
56667;SDS011;42542;48.360;10.958;2022-12-24T13:24:26;4.07;;;0.82;;
56667;SDS011;42542;48.360;10.958;2022-12-24T13:27:31;5.25;;;0.90;;
56667;SDS011;42542;48.360;10.958;2022-12-24T13:30:38;4.00;;;1.00;;
56667;SDS011;42542;48.360;10.958;2022-12-24T13:37:02;4.82;;;0.80;;
56667;SDS011;42542;48.360;10.958;2022-12-24T13:43:10;5.53;;;0.80;;
56667;SDS011;42542;48.360;10.958;2022-12-24T13:46:13;4.28;;;0.85;;
56667;SDS011;42542;48.360;10.958;2022-12-24T13:49:52;4.75;;;0.90;;
56667;SDS011;42542;48.360;10.958;2022-12-24T13:52:54;7.18;;;0.85;;
56667;SDS011;42542;48.360;10.958;2022-12-24T13:55:58;3.78;;;0.90;;
56667;SDS011;42542;48.360;10.958;2022-12-24T13:59:23;3.97;;;0.80;;
56667;SDS011;42542;48.360;10.958;2022-12-24T14:02:43;4.35;;;0.93;;
56667;SDS011;42542;48.360;10.958;2022-12-24T14:06:01;5.93;;;0.90;;
56667;SDS011;42542;48.360;10.958;2022-12-24T14:09:14;5.70;;;0.90;;
56667;SDS011;42542;48.360;10.958;2022-12-24T14:18:49;3.85;;;0.82;;
56667;SDS011;42542;48.360;10.958;2022-12-24T14:22:04;3.58;;;0.80;;
56667;SDS011;42542;48.360;10.958;2022-12-24T14:25:20;4.55;;;0.75;;
56667;SDS011;42542;48.360;10.958;2022-12-24T14:28:24;4.70;;;1.00;;
56667;SDS011;42542;48.360;10.958;2022-12-24T14:31:34;5.40;;;1.10;;
56667;SDS011;42542;48.360;10.958;2022-12-24T14:34:36;5.85;;;1.10;;
56667;SDS011;42542;48.360;10.958;2022-12-24T14:37:38;6.40;;;1.47;;
56667;SDS011;42542;48.360;10.958;2022-12-24T14:41:05;4.63;;;1.10;;
56667;SDS011;42542;48.360;10.958;2022-12-24T14:44:06;4.97;;;1.30;;
56667;SDS011;42542;48.360;10.958;2022-12-24T14:57:33;3.75;;;0.90;;
56667;SDS011;42542;48.360;10.958;2022-12-24T15:00:35;5.80;;;0.98;;
56667;SDS011;42542;48.360;10.958;2022-12-24T15:03:40;5.25;;;1.00;;
56667;SDS011;42542;48.360;10.958;2022-12-24T15:09:57;4.70;;;1.00;;
56667;SDS011;42542;48.360;10.958;2022-12-24T15:13:14;6.38;;;1.50;;
56667;SDS011;42542;48.360;10.958;2022-12-24T15:16:22;5.82;;;1.30;;
56667;SDS011;42542;48.360;10.958;2022-12-24T15:19:37;5.63;;;1.40;;
56667;SDS011;42542;48.360;10.958;2022-12-24T15:22:43;7.13;;;1.38;;
56667;SDS011;42542;48.360;10.958;2022-12-24T15:25:46;5.65;;;1.25;;
56667;SDS011;42542;48.360;10.958;2022-12-24T15:28:48;5.00;;;1.30;;
56667;SDS011;42542;48.360;10.958;2022-12-24T15:32:00;5.38;;;1.30;;
56667;SDS011;42542;48.360;10.958;2022-12-24T15:35:05;5.80;;;1.42;;
56667;SDS011;42542;48.360;10.958;2022-12-24T15:41:36;4.87;;;1.63;;
56667;SDS011;42542;48.360;10.958;2022-12-24T15:45:02;6.35;;;1.38;;
56667;SDS011;42542;48.360;10.958;2022-12-24T15:48:12;5.43;;;1.52;;
56667;SDS011;42542;48.360;10.958;2022-12-24T15:51:36;8.27;;;1.70;;
56667;SDS011;42542;48.360;10.958;2022-12-24T15:54:44;6.22;;;1.50;;
56667;SDS011;42542;48.360;10.958;2022-12-24T15:57:54;6.65;;;1.30;;
56667;SDS011;42542;48.360;10.958;2022-12-24T16:01:17;6.80;;;1.55;;
56667;SDS011;42542;48.360;10.958;2022-12-24T16:04:27;5.72;;;1.40;;
56667;SDS011;42542;48.360;10.958;2022-12-24T16:07:29;6.35;;;1.70;;
56667;SDS011;42542;48.360;10.958;2022-12-24T16:11:12;5.60;;;1.67;;
56667;SDS011;42542;48.360;10.958;2022-12-24T16:14:23;7.57;;;1.80;;
56667;SDS011;42542;48.360;10.958;2022-12-24T16:17:26;6.32;;;1.70;;
56667;SDS011;42542;48.360;10.958;2022-12-24T16:20:30;8.35;;;1.80;;
56667;SDS011;42542;48.360;10.958;2022-12-24T16:23:37;16.97;;;5.33;;
56667;SDS011;42542;48.360;10.958;2022-12-24T16:26:45;25.73;;;9.18;;
56667;SDS011;42542;48.360;10.958;2022-12-24T16:29:48;11.85;;;5.40;;
56667;SDS011;42542;48.360;10.958;2022-12-24T16:32:50;9.93;;;3.95;;
56667;SDS011;42542;48.360;10.958;2022-12-24T16:35:52;9.57;;;3.00;;
56667;SDS011;42542;48.360;10.958;2022-12-24T16:38:53;12.80;;;3.42;;
56667;SDS011;42542;48.360;10.958;2022-12-24T16:42:15;8.25;;;2.65;;
56667;SDS011;42542;48.360;10.958;2022-12-24T16:45:35;11.20;;;4.00;;
56667;SDS011;42542;48.360;10.958;2022-12-24T16:48:38;8.43;;;3.03;;
56667;SDS011;42542;48.360;10.958;2022-12-24T16:51:46;9.32;;;2.80;;
56667;SDS011;42542;48.360;10.958;2022-12-24T16:54:48;10.03;;;3.50;;
56667;SDS011;42542;48.360;10.958;2022-12-24T16:57:50;10.88;;;3.40;;
56667;SDS011;42542;48.360;10.958;2022-12-24T17:00:52;11.27;;;3.40;;
56667;SDS011;42542;48.360;10.958;2022-12-24T17:03:53;8.32;;;3.50;;
56667;SDS011;42542;48.360;10.958;2022-12-24T17:06:55;11.38;;;3.75;;
56667;SDS011;42542;48.360;10.958;2022-12-24T17:09:57;8.07;;;3.10;;
56667;SDS011;42542;48.360;10.958;2022-12-24T17:12:58;9.05;;;3.00;;
56667;SDS011;42542;48.360;10.958;2022-12-24T17:16:01;8.57;;;3.50;;
56667;SDS011;42542;48.360;10.958;2022-12-24T17:19:03;10.02;;;4.07;;
56667;SDS011;42542;48.360;10.958;2022-12-24T17:22:05;10.73;;;3.97;;
56667;SDS011;42542;48.360;10.958;2022-12-24T17:25:07;9.50;;;4.27;;
56667;SDS011;42542;48.360;10.958;2022-12-24T17:28:10;13.20;;;4.40;;
56667;SDS011;42542;48.360;10.958;2022-12-24T17:31:13;13.90;;;4.43;;
56667;SDS011;42542;48.360;10.958;2022-12-24T17:34:19;12.20;;;4.20;;
56667;SDS011;42542;48.360;10.958;2022-12-24T17:37:21;8.95;;;3.80;;
56667;SDS011;42542;48.360;10.958;2022-12-24T17:40:22;10.43;;;4.45;;
56667;SDS011;42542;48.360;10.958;2022-12-24T17:43:24;11.48;;;4.50;;
56667;SDS011;42542;48.360;10.958;2022-12-24T17:46:25;14.37;;;5.10;;
56667;SDS011;42542;48.360;10.958;2022-12-24T17:49:27;12.20;;;5.40;;
56667;SDS011;42542;48.360;10.958;2022-12-24T17:52:29;14.20;;;5.47;;
56667;SDS011;42542;48.360;10.958;2022-12-24T17:55:30;14.73;;;4.97;;
56667;SDS011;42542;48.360;10.958;2022-12-24T17:58:32;12.50;;;5.00;;
56667;SDS011;42542;48.360;10.958;2022-12-24T18:01:34;13.45;;;5.90;;
56667;SDS011;42542;48.360;10.958;2022-12-24T18:04:35;15.55;;;6.45;;
56667;SDS011;42542;48.360;10.958;2022-12-24T18:07:37;14.13;;;6.40;;
56667;SDS011;42542;48.360;10.958;2022-12-24T18:10:39;13.10;;;6.18;;
56667;SDS011;42542;48.360;10.958;2022-12-24T18:13:41;14.20;;;5.35;;
56667;SDS011;42542;48.360;10.958;2022-12-24T18:16:43;12.93;;;4.87;;
56667;SDS011;42542;48.360;10.958;2022-12-24T18:19:48;11.18;;;4.22;;
56667;SDS011;42542;48.360;10.958;2022-12-24T18:22:50;12.82;;;4.13;;
56667;SDS011;42542;48.360;10.958;2022-12-24T18:25:51;8.70;;;4.00;;
56667;SDS011;42542;48.360;10.958;2022-12-24T18:28:53;11.90;;;4.20;;
56667;SDS011;42542;48.360;10.958;2022-12-24T18:31:57;10.30;;;3.63;;
56667;SDS011;42542;48.360;10.958;2022-12-24T18:34:58;10.35;;;3.65;;
56667;SDS011;42542;48.360;10.958;2022-12-24T18:38:00;10.23;;;3.38;;
56667;SDS011;42542;48.360;10.958;2022-12-24T18:41:06;11.10;;;4.18;;
56667;SDS011;42542;48.360;10.958;2022-12-24T18:44:09;11.98;;;5.10;;
56667;SDS011;42542;48.360;10.958;2022-12-24T18:47:10;14.93;;;5.47;;
56667;SDS011;42542;48.360;10.958;2022-12-24T18:50:12;11.07;;;4.80;;
56667;SDS011;42542;48.360;10.958;2022-12-24T18:53:14;12.93;;;4.47;;
56667;SDS011;42542;48.360;10.958;2022-12-24T18:56:17;15.87;;;6.60;;
56667;SDS011;42542;48.360;10.958;2022-12-24T18:59:20;13.75;;;5.85;;
56667;SDS011;42542;48.360;10.958;2022-12-24T19:02:22;14.38;;;5.97;;
56667;SDS011;42542;48.360;10.958;2022-12-24T19:05:24;13.90;;;6.20;;
56667;SDS011;42542;48.360;10.958;2022-12-24T19:08:25;9.35;;;3.83;;
56667;SDS011;42542;48.360;10.958;2022-12-24T19:11:47;11.32;;;4.22;;
56667;SDS011;42542;48.360;10.958;2022-12-24T19:14:49;17.73;;;7.45;;
56667;SDS011;42542;48.360;10.958;2022-12-24T19:17:52;20.57;;;7.90;;
56667;SDS011;42542;48.360;10.958;2022-12-24T19:20:55;17.55;;;6.25;;
56667;SDS011;42542;48.360;10.958;2022-12-24T19:23:57;16.13;;;5.97;;
56667;SDS011;42542;48.360;10.958;2022-12-24T19:26:59;14.73;;;5.33;;
56667;SDS011;42542;48.360;10.958;2022-12-24T19:30:03;12.15;;;4.93;;
56667;SDS011;42542;48.360;10.958;2022-12-24T19:33:05;12.23;;;4.90;;
56667;SDS011;42542;48.360;10.958;2022-12-24T19:36:07;10.13;;;4.15;;
56667;SDS011;42542;48.360;10.958;2022-12-24T19:39:09;12.10;;;4.10;;
56667;SDS011;42542;48.360;10.958;2022-12-24T19:42:11;10.88;;;3.90;;
56667;SDS011;42542;48.360;10.958;2022-12-24T19:45:13;11.13;;;4.43;;
56667;SDS011;42542;48.360;10.958;2022-12-24T19:48:14;16.20;;;4.20;;
56667;SDS011;42542;48.360;10.958;2022-12-24T19:51:16;11.65;;;5.00;;
56667;SDS011;42542;48.360;10.958;2022-12-24T19:54:18;14.57;;;6.10;;